Time;durP1;ratioP1;P1;durP2;ratioP2;P2;SDS_P1;SDS_P2;PMS_P1;PMS_P2;Temp;Humidity;BMP_temperature;BMP_pressure;BME280_temperature;BME280_humidity;BME280_pressure;Samples;Min_cycle;Max_cycle;Signal;HPM_P1;HPM_P2
2023/01/02 00:01:00;;;;;;;8.35;3.30;;;;;;;12.61;72.34;100954.94;5102828;28;20481;-68
2023/01/02 00:03:28;;;;;;;8.35;3.08;;;;;;;12.60;72.61;100951.41;5100537;28;20041;-68
2023/01/02 00:05:56;;;;;;;6.53;2.90;;;;;;;12.59;72.63;100952.47;5099784;28;20119;-68
2023/01/02 00:08:24;;;;;;;5.70;2.88;;;;;;;12.59;72.82;100952.47;5113426;28;20081;-68
2023/01/02 00:10:52;;;;;;;11.38;3.67;;;;;;;12.59;72.56;100952.47;5096126;28;20086;-68
2023/01/02 00:13:20;;;;;;;10.77;3.00;;;;;;;12.58;72.74;100958.91;5102546;28;20040;-68
2023/01/02 00:15:48;;;;;;;4.85;2.60;;;;;;;12.59;72.40;100932.78;5103960;28;20044;-69
2023/01/02 00:18:17;;;;;;;8.15;3.58;;;;;;;12.57;73.06;100934.88;5100930;28;20094;-69
2023/01/02 00:20:45;;;;;;;9.73;3.15;;;;;;;12.58;72.77;100941.91;5104621;28;20044;-68
2023/01/02 00:23:13;;;;;;;5.97;2.70;;;;;;;12.59;72.77;100944.38;5102541;28;20044;-67
2023/01/02 00:25:41;;;;;;;8.18;3.22;;;;;;;12.59;72.38;100938.16;5104925;28;20052;-68
2023/01/02 00:28:09;;;;;;;13.55;3.35;;;;;;;12.58;72.36;100940.03;5104903;28;20044;-66
2023/01/02 00:30:38;;;;;;;10.57;3.92;;;;;;;12.50;72.63;100926.06;5099039;28;20048;-68
2023/01/02 00:33:06;;;;;;;8.48;2.92;;;;;;;12.58;72.48;100936.53;5102912;28;20039;-68
2023/01/02 00:35:37;;;;;;;6.45;3.42;;;;;;;12.57;72.54;100938.41;5104610;28;20052;-68
2023/01/02 00:38:05;;;;;;;9.55;3.25;;;;;;;12.57;72.40;100933.00;5101164;28;20072;-68
2023/01/02 00:40:33;;;;;;;8.65;3.10;;;;;;;12.57;72.69;100930.31;5104496;28;21651;-69
2023/01/02 00:43:02;;;;;;;7.75;3.65;;;;;;;12.58;72.73;100931.13;5100068;28;20168;-69
2023/01/02 00:45:29;;;;;;;9.38;2.83;;;;;;;12.58;72.62;100931.13;5101113;28;20082;-69
2023/01/02 00:47:57;;;;;;;4.03;2.50;;;;;;;12.57;72.87;100930.31;5104070;28;20337;-68
2023/01/02 00:50:25;;;;;;;5.82;3.33;;;;;;;12.59;72.67;100935.47;5093243;28;20048;-68
2023/01/02 00:52:54;;;;;;;10.75;3.25;;;;;;;12.59;73.09;100938.16;5100981;28;20138;-68
2023/01/02 00:55:22;;;;;;;6.25;3.13;;;;;;;12.58;73.09;100936.53;5104272;28;20051;-68
2023/01/02 00:57:50;;;;;;;6.53;3.45;;;;;;;12.58;73.04;100929.25;5103909;28;20429;-67
2023/01/02 01:00:18;;;;;;;9.75;3.10;;;;;;;12.59;72.92;100919.28;5095950;28;20055;-69
2023/01/02 01:02:54;;;;;;;8.10;3.65;;;;;;;12.59;72.64;100916.59;5104258;28;20040;-67
2023/01/02 01:05:22;;;;;;;11.15;2.95;;;;;;;12.60;72.68;100916.34;5103902;28;20048;-68
2023/01/02 01:07:50;;;;;;;7.40;2.90;;;;;;;12.59;73.16;100909.31;5102618;28;20126;-67
2023/01/02 01:10:19;;;;;;;7.82;2.88;;;;;;;12.59;72.76;100914.72;5104589;28;20108;-67
2023/01/02 01:12:47;;;;;;;6.85;3.00;;;;;;;12.60;73.09;100910.97;5103292;28;20055;-67
2023/01/02 01:15:15;;;;;;;9.18;2.97;;;;;;;12.60;73.19;100912.84;5093153;28;20051;-68
2023/01/02 01:17:43;;;;;;;7.38;3.08;;;;;;;12.58;72.99;100910.38;5102905;28;20070;-67
2023/01/02 01:20:11;;;;;;;6.63;2.92;;;;;;;12.59;73.28;100911.19;5097836;28;20506;-68
2023/01/02 01:22:39;;;;;;;6.18;2.47;;;;;;;12.59;73.37;100897.72;5094815;28;20076;-68
2023/01/02 01:25:08;;;;;;;7.63;2.90;;;;;;;12.59;73.14;100905.81;5103543;28;20109;-68
2023/01/02 01:27:37;;;;;;;9.52;3.30;;;;;;;12.58;73.03;100907.69;5102559;28;20050;-68
2023/01/02 01:30:06;;;;;;;8.63;3.80;;;;;;;12.58;73.18;100907.69;5105350;28;20040;-68
2023/01/02 01:32:34;;;;;;;11.00;2.58;;;;;;;12.57;73.51;100911.44;5102501;28;20040;-68
2023/01/02 01:35:02;;;;;;;5.57;2.70;;;;;;;12.56;73.14;100907.09;5107624;28;20112;-69
2023/01/02 01:37:30;;;;;;;6.40;2.30;;;;;;;12.57;73.50;100910.63;5107868;28;20051;-68
2023/01/02 01:39:58;;;;;;;6.00;2.70;;;;;;;12.57;73.24;100916.81;5106324;28;20058;-68
2023/01/02 01:42:32;;;;;;;10.63;3.75;;;;;;;12.57;73.22;100924.09;5107624;28;20052;-68
2023/01/02 01:45:01;;;;;;;4.47;1.88;;;;;;;12.56;73.48;100923.28;5106104;28;20044;-68
2023/01/02 01:47:37;;;;;;;7.13;2.70;;;;;;;12.58;73.05;100920.34;5108532;28;20044;-68
2023/01/02 01:50:08;;;;;;;6.80;2.42;;;;;;;12.57;73.50;100930.31;5095534;28;20063;-68
2023/01/02 01:52:40;;;;;;;7.13;2.70;;;;;;;12.56;73.53;100922.44;5107186;28;20064;-68
2023/01/02 01:55:12;;;;;;;5.63;2.92;;;;;;;12.54;73.28;100922.69;5101417;28;20052;-68
2023/01/02 01:57:44;;;;;;;9.98;3.00;;;;;;;12.55;73.15;100926.19;5098964;28;20044;-68
2023/01/02 02:00:15;;;;;;;7.05;2.72;;;;;;;12.55;73.12;100928.91;5106456;28;20147;-68
2023/01/02 02:02:48;;;;;;;6.65;2.80;;;;;;;12.56;73.18;100928.66;5112453;28;20164;-68
2023/01/02 02:05:20;;;;;;;7.68;2.92;;;;;;;12.56;73.34;100933.22;5103302;28;20493;-68
2023/01/02 02:07:57;;;;;;;7.10;2.88;;;;;;;12.56;73.45;100939.44;5112331;28;20123;-67
2023/01/02 02:10:24;;;;;;;6.80;2.35;;;;;;;12.54;73.34;100930.78;5097574;28;20484;-67
2023/01/02 02:12:52;;;;;;;13.95;2.80;;;;;;;12.56;73.54;100933.22;5104598;28;20070;-67
2023/01/02 02:15:31;;;;;;;10.32;2.65;;;;;;;12.46;73.75;100916.81;5113625;28;20504;-67
2023/01/02 02:18:09;;;;;;;7.50;2.55;;;;;;;12.54;74.03;100936.16;5106530;28;20122;-67
2023/01/02 02:20:46;;;;;;;4.70;2.63;;;;;;;12.56;73.88;100925.97;5099220;28;20100;-67
2023/01/02 02:23:58;;;;;;;6.75;3.15;;;;;;;12.58;73.80;100934.66;5117062;28;20053;-68
2023/01/02 02:26:55;;;;;;;8.80;2.97;;;;;;;12.58;74.08;100928.44;5106291;28;20086;-68
2023/01/02 02:29:58;;;;;;;7.47;3.40;;;;;;;12.59;74.23;100927.38;5097949;28;20067;-61
2023/01/02 02:32:37;;;;;;;7.97;2.65;;;;;;;12.57;74.28;100924.09;5096104;28;20070;-66
2023/01/02 02:35:17;;;;;;;9.95;2.95;;;;;;;12.58;74.27;100926.56;5119996;28;20044;-68
2023/01/02 02:37:53;;;;;;;8.95;3.17;;;;;;;12.59;73.79;100927.38;5114041;28;20047;-67
2023/01/02 02:40:32;;;;;;;5.85;3.20;;;;;;;12.58;73.92;100940.03;5101575;28;20126;-67
2023/01/02 02:43:10;;;;;;;7.63;2.88;;;;;;;12.59;74.39;100927.38;5105686;28;20098;-67
2023/01/02 02:45:46;;;;;;;12.32;2.97;;;;;;;12.58;74.20;100931.94;5106385;28;20093;-69
2023/01/02 02:48:20;;;;;;;;;;;;;;;12.58;73.74;100933.81;5106660;28;20051;-67
2023/01/02 02:50:56;;;;;;;9.63;3.55;;;;;;;12.58;74.02;100931.13;5115079;28;19970;-67
2023/01/02 02:53:26;;;;;;;6.40;3.00;;;;;;;12.59;74.07;100932.78;5113608;28;20374;-68
2023/01/02 02:55:57;;;;;;;7.57;2.40;;;;;;;12.59;74.24;100932.78;5108107;28;20048;-67
2023/01/02 02:58:28;;;;;;;7.93;2.58;;;;;;;12.59;74.29;100938.16;5104224;28;20078;-67
2023/01/02 03:01:02;;;;;;;12.50;2.78;;;;;;;12.58;74.10;100945.44;5116109;28;20484;-67
2023/01/02 03:03:30;;;;;;;6.45;2.35;;;;;;;12.59;73.89;100938.16;5104724;28;20048;-67
2023/01/02 03:06:10;;;;;;;9.55;2.28;;;;;;;12.59;73.88;100935.47;5104585;28;20092;-67
2023/01/02 03:08:44;;;;;;;10.80;3.65;;;;;;;12.59;73.77;100938.97;5109182;28;20043;-67
2023/01/02 03:11:14;;;;;;;5.28;2.40;;;;;;;12.58;74.20;100937.34;5101683;28;20051;-67
2023/01/02 03:13:59;;;;;;;5.80;2.22;;;;;;;12.59;73.85;100935.47;5108255;28;20040;-67
2023/01/02 03:16:33;;;;;;;7.55;2.75;;;;;;;12.58;74.26;100937.34;5105368;28;20048;-67
2023/01/02 03:19:06;;;;;;;7.45;2.30;;;;;;;12.58;74.14;100937.34;5106394;28;20055;-67
2023/01/02 03:21:35;;;;;;;11.13;3.25;;;;;;;12.57;74.23;100926.78;5104247;28;20052;-68
2023/01/02 03:24:07;;;;;;;12.02;3.40;;;;;;;12.58;74.25;100923.03;5116016;28;20100;-68
2023/01/02 03:26:38;;;;;;;6.40;2.58;;;;;;;12.57;74.19;100914.13;5116668;28;20072;-68
2023/01/02 03:29:10;;;;;;;5.78;2.55;;;;;;;12.57;74.30;100919.53;5110136;28;20071;-67
2023/01/02 03:31:43;;;;;;;7.68;2.78;;;;;;;12.57;74.40;100926.78;5110941;28;20147;-67
2023/01/02 03:34:16;;;;;;;7.25;2.65;;;;;;;12.56;74.73;100927.84;5094811;28;20131;-67
2023/01/02 03:36:50;;;;;;;4.90;2.13;;;;;;;12.55;74.67;100916.25;5102412;28;20048;-67
2023/01/02 03:39:19;;;;;;;8.07;2.90;;;;;;;12.56;74.26;100923.28;5108724;28;20052;-64
2023/01/02 03:41:55;;;;;;;7.38;3.05;;;;;;;12.55;74.72;100915.41;5106537;28;20052;-68
2023/01/02 03:44:38;;;;;;;9.50;3.00;;;;;;;12.55;74.72;100926.19;5104563;28;20047;-67
2023/01/02 03:47:20;;;;;;;7.20;2.65;;;;;;;12.56;74.84;100928.66;5096061;28;20058;-68
2023/01/02 03:49:53;;;;;;;6.05;2.90;;;;;;;12.57;74.33;100940.28;5104798;28;20546;-68
2023/01/02 03:52:21;;;;;;;7.35;2.58;;;;;;;12.62;74.50;100941.22;5101650;28;20115;-64
2023/01/02 03:54:54;;;;;;;13.00;2.60;;;;;;;12.63;74.49;100942.03;5098297;28;20048;-67
2023/01/02 03:57:33;;;;;;;6.38;2.50;;;;;;;12.62;74.18;100943.09;5099805;28;20049;-64
2023/01/02 04:00:06;;;;;;;5.47;2.28;;;;;;;12.60;74.14;100939.81;5104490;28;20101;-69
2023/01/02 04:02:39;;;;;;;6.97;2.55;;;;;;;12.60;74.25;100950.59;5103503;28;20043;-68
2023/01/02 04:05:14;;;;;;;7.85;3.22;;;;;;;12.60;74.11;100953.28;5095421;28;20072;-67
2023/01/02 04:07:51;;;;;;;7.53;2.63;;;;;;;12.59;74.20;100946.25;5109036;28;20067;-68
2023/01/02 04:10:19;;;;;;;;;;;;;;;12.58;74.52;100950.81;5112867;28;20084;-68
2023/01/02 04:12:52;;;;;;;6.78;2.72;;;;;;;12.57;74.29;100949.19;5092721;28;20703;-68
2023/01/02 04:15:24;;;;;;;6.55;2.55;;;;;;;12.56;74.35;100957.50;5104157;28;20044;-68
2023/01/02 04:17:57;;;;;;;7.90;3.70;;;;;;;12.57;74.42;100957.28;5105763;28;20071;-68
2023/01/02 04:20:30;;;;;;;6.45;3.55;;;;;;;12.56;74.19;100957.50;5102423;28;20108;-68
2023/01/02 04:23:03;;;;;;;7.78;3.08;;;;;;;12.57;74.34;100964.53;5103608;28;20048;-68
2023/01/02 04:25:39;;;;;;;5.45;2.70;;;;;;;12.56;74.87;100961.00;5105015;28;20056;-67
2023/01/02 04:28:12;;;;;;;10.63;2.80;;;;;;;12.55;74.55;100945.06;5099882;28;20078;-68
2023/01/02 04:30:44;;;;;;;11.40;2.63;;;;;;;12.57;74.30;100957.28;5090726;28;20051;-66
2023/01/02 04:33:16;;;;;;;8.85;3.15;;;;;;;12.56;74.98;100955.63;5105209;28;20052;-68
2023/01/02 04:35:44;;;;;;;6.03;2.40;;;;;;;12.56;74.55;100966.41;5102411;28;20206;-67
2023/01/02 04:38:12;;;;;;;4.57;2.30;;;;;;;12.57;74.53;100961.84;5105546;28;20052;-68
2023/01/02 04:40:41;;;;;;;8.10;2.88;;;;;;;12.47;74.45;100951.63;5104436;28;20051;-68
2023/01/02 04:43:16;;;;;;;6.78;2.60;;;;;;;12.58;74.81;100971.56;5105891;28;20040;-68
2023/01/02 04:45:44;;;;;;;6.53;2.35;;;;;;;12.57;74.95;100969.94;5098947;28;20072;-68
2023/01/02 04:48:13;;;;;;;4.65;2.60;;;;;;;12.57;74.61;100970.75;5108514;28;20048;-68
2023/01/02 04:50:41;;;;;;;6.30;2.67;;;;;;;12.56;74.40;100974.50;5106227;28;20055;-67
2023/01/02 04:53:09;;;;;;;6.57;2.47;;;;;;;12.57;74.76;100986.09;5099964;28;20674;-68
2023/01/02 04:55:37;;;;;;;7.97;2.13;;;;;;;12.47;74.73;100969.66;5104502;28;20050;-68
2023/01/02 04:58:06;;;;;;;5.45;2.75;;;;;;;12.56;74.50;100998.75;5105327;28;20420;-67
2023/01/02 05:00:34;;;;;;;5.45;2.25;;;;;;;12.55;74.64;100990.91;5106764;28;20039;-67
2023/01/02 05:03:03;;;;;;;6.10;2.75;;;;;;;12.54;74.68;100987.38;5113417;28;20044;-67
2023/01/02 05:05:32;;;;;;;8.20;2.70;;;;;;;12.55;74.71;100999.00;5102749;28;20059;-67
2023/01/02 05:08:00;;;;;;;6.40;2.17;;;;;;;12.55;74.40;100993.59;5115818;28;20059;-67
2023/01/02 05:10:28;;;;;;;8.48;2.85;;;;;;;12.54;74.82;100994.66;5100805;28;20044;-68
2023/01/02 05:12:58;;;;;;;6.28;2.40;;;;;;;12.54;74.58;101000.88;5100995;28;20057;-67
2023/01/02 05:15:26;;;;;;;7.10;2.22;;;;;;;12.55;74.79;100999.00;5102560;28;20062;-67
2023/01/02 05:17:54;;;;;;;6.45;2.45;;;;;;;12.55;74.40;100999.00;5108196;28;20052;-68
2023/01/02 05:20:22;;;;;;;4.88;2.20;;;;;;;12.54;74.77;101006.25;5103204;28;20055;-66
2023/01/02 05:25:36;;;;;;;11.65;2.38;;;;;;;12.54;74.85;101010.81;5105909;28;20062;-67
2023/01/02 05:28:04;;;;;;;8.45;1.92;;;;;;;12.52;74.48;101015.63;5094681;28;20075;-67
2023/01/02 05:30:32;;;;;;;6.05;2.53;;;;;;;12.53;74.39;101018.09;5101427;28;20044;-67
2023/01/02 05:33:00;;;;;;;6.82;2.00;;;;;;;12.52;74.73;101019.16;5099364;28;20054;-67
2023/01/02 05:35:28;;;;;;;9.75;2.22;;;;;;;12.54;74.51;101029.69;5094405;28;20051;-68
2023/01/02 05:38:01;;;;;;;4.75;2.38;;;;;;;12.53;74.29;101025.34;5104247;28;20071;-68
2023/01/02 05:40:29;;;;;;;6.47;2.60;;;;;;;12.53;74.65;101036.97;5102113;28;20052;-67
2023/01/02 05:42:57;;;;;;;11.05;2.40;;;;;;;12.54;74.68;101041.31;5103559;28;20135;-68
2023/01/02 05:45:26;;;;;;;6.30;2.20;;;;;;;12.53;74.38;101033.44;5097384;28;20473;-68
2023/01/02 05:47:53;;;;;;;7.25;2.22;;;;;;;12.52;74.65;101034.50;5104137;28;20074;-67
2023/01/02 05:50:21;;;;;;;7.15;2.67;;;;;;;12.53;74.78;101030.75;5102856;28;20572;-67
2023/01/02 05:52:49;;;;;;;5.18;2.28;;;;;;;12.53;74.39;101036.97;5101163;28;20052;-67
2023/01/02 05:55:18;;;;;;;3.75;1.67;;;;;;;12.53;74.49;101031.56;5102967;28;20036;-68
2023/01/02 05:57:46;;;;;;;6.18;2.00;;;;;;;12.54;74.50;101041.31;5099582;28;20515;-67
2023/01/02 06:00:15;;;;;;;5.30;2.17;;;;;;;12.53;74.40;101045.06;5099844;28;20139;-67
2023/01/02 06:02:43;;;;;;;8.73;2.00;;;;;;;12.54;74.77;101043.19;5104011;28;20044;-67
2023/01/02 06:05:15;;;;;;;3.10;1.80;;;;;;;12.53;74.96;101045.06;5100446;28;20044;-68
2023/01/02 06:07:43;;;;;;;7.40;2.00;;;;;;;12.53;74.26;101053.13;5103936;28;20043;-67
2023/01/02 06:10:11;;;;;;;6.53;2.10;;;;;;;12.54;74.70;101051.25;5102262;28;20078;-66
2023/01/02 06:12:40;;;;;;;4.68;1.75;;;;;;;12.53;74.45;101053.13;4746556;28;10000027;-67
2023/01/02 06:15:09;;;;;;;4.78;2.22;;;;;;;12.54;74.41;101057.47;5099367;28;20066;-67
2023/01/02 06:17:36;;;;;;;4.65;2.22;;;;;;;12.54;74.82;101062.88;5101526;28;20044;-59
2023/01/02 06:20:05;;;;;;;8.00;2.05;;;;;;;12.55;74.89;101066.41;5093639;28;20048;-66
2023/01/02 06:22:34;;;;;;;6.30;2.00;;;;;;;12.53;74.84;101066.63;5100207;28;20044;-67
2023/01/02 06:25:01;;;;;;;8.38;1.70;;;;;;;12.52;74.61;101078.47;5098761;28;20079;-66
2023/01/02 06:27:31;;;;;;;7.97;2.35;;;;;;;12.54;74.48;101083.63;5102345;28;20123;-67
2023/01/02 06:30:00;;;;;;;4.47;1.98;;;;;;;12.53;74.80;101085.50;5090570;28;20467;-66
2023/01/02 06:32:29;;;;;;;4.10;1.90;;;;;;;12.53;75.04;101090.88;5102419;28;20318;-67
2023/01/02 06:34:57;;;;;;;3.80;1.85;;;;;;;12.53;74.77;101123.25;5102225;28;20115;-66
2023/01/02 06:37:25;;;;;;;6.20;2.50;;;;;;;12.54;75.19;101146.44;5102398;28;20055;-66
2023/01/02 06:39:52;;;;;;;4.63;2.30;;;;;;;12.54;75.53;101143.75;5103606;28;20162;-67
2023/01/02 06:42:20;;;;;;;5.30;2.00;;;;;;;12.54;75.59;101159.94;5101672;28;20056;-67
2023/01/02 06:44:48;;;;;;;4.25;2.63;;;;;;;12.52;75.88;101162.03;5101515;28;20082;-67
2023/01/02 06:47:17;;;;;;;6.20;2.50;;;;;;;12.51;75.46;101164.94;5102696;28;20052;-67
2023/01/02 06:49:45;;;;;;;3.35;1.80;;;;;;;12.49;75.10;101177.84;5099857;28;20075;-68
2023/01/02 06:52:13;;;;;;;3.88;1.92;;;;;;;12.47;74.80;101183.44;5102083;28;20134;-67
2023/01/02 06:54:41;;;;;;;5.28;1.50;;;;;;;12.45;74.30;101188.25;5100951;28;20100;-64
2023/01/02 06:57:09;;;;;;;3.55;1.30;;;;;;;12.45;74.40;101190.13;5097237;28;20048;-68
2023/01/02 06:59:36;;;;;;;1.65;1.20;;;;;;;12.43;74.04;101200.31;5101321;28;20063;-68
2023/01/02 07:02:04;;;;;;;2.15;1.30;;;;;;;12.42;74.28;101212.13;5100987;28;20052;-68
2023/01/02 07:04:34;;;;;;;2.15;1.20;;;;;;;12.41;73.76;101221.28;5097579;28;20096;-67
2023/01/02 07:07:02;;;;;;;1.00;0.90;;;;;;;12.39;73.54;101226.88;5101176;28;20044;-68
2023/01/02 07:09:30;;;;;;;1.95;0.90;;;;;;;12.37;73.16;101231.69;5102084;28;20048;-68
2023/01/02 07:11:58;;;;;;;1.95;0.93;;;;;;;12.36;72.85;101243.50;5095751;28;20063;-68
2023/01/02 07:14:26;;;;;;;1.52;0.88;;;;;;;12.33;72.90;101255.56;5098474;28;21192;-67
2023/01/02 07:16:54;;;;;;;1.10;0.82;;;;;;;12.32;72.92;101256.59;5098631;28;20084;-69
2023/01/02 07:19:21;;;;;;;1.70;0.70;;;;;;;12.32;72.90;101263.88;5102907;28;20082;-67
2023/01/02 07:21:51;;;;;;;1.40;0.77;;;;;;;12.31;73.28;101275.69;5114320;28;20083;-67
2023/01/02 07:24:18;;;;;;;1.70;0.73;;;;;;;12.31;73.63;101286.47;5102156;28;20067;-68
2023/01/02 07:26:46;;;;;;;1.50;1.02;;;;;;;12.30;73.19;101295.59;5096626;28;20044;-65
2023/01/02 07:29:14;;;;;;;1.77;0.82;;;;;;;12.30;73.20;101303.69;5100325;28;20052;-65
2023/01/02 07:31:42;;;;;;;1.50;0.88;;;;;;;12.30;73.15;101296.44;5100202;28;20082;-66
2023/01/02 07:34:10;;;;;;;1.73;1.10;;;;;;;12.30;73.21;101309.91;5105381;28;20054;-67
2023/01/02 07:36:38;;;;;;;1.60;1.50;;;;;;;12.22;73.06;101310.19;5102943;28;20054;-64
2023/01/02 07:39:07;;;;;;;1.90;1.30;;;;;;;12.20;73.11;101314.97;5108821;28;20048;-67
2023/01/02 07:41:35;;;;;;;5.45;1.73;;;;;;;12.22;73.37;101318.28;5104357;28;20056;-66
2023/01/02 07:44:03;;;;;;;2.72;1.80;;;;;;;12.21;73.17;101310.41;5110524;28;20136;-62
2023/01/02 07:46:31;;;;;;;2.25;1.60;;;;;;;12.22;73.11;101320.97;5101113;28;20066;-67
2023/01/02 07:48:59;;;;;;;2.30;1.85;;;;;;;12.21;73.45;101324.72;5101488;28;20100;-66
2023/01/02 07:51:27;;;;;;;2.85;2.20;;;;;;;12.21;72.74;101338.19;5094865;28;20067;-67
2023/01/02 07:53:55;;;;;;;3.10;2.30;;;;;;;12.19;72.66;101348.34;5099751;28;20459;-67
2023/01/02 07:56:24;;;;;;;2.35;1.95;;;;;;;12.18;72.87;101360.19;5093122;28;20107;-67
2023/01/02 07:58:52;;;;;;;2.20;1.98;;;;;;;12.17;72.57;101363.09;5098796;28;20056;-68
2023/01/02 08:01:20;;;;;;;3.20;2.30;;;;;;;12.16;72.23;101366.84;5097041;28;20044;-66
2023/01/02 08:03:49;;;;;;;3.90;2.53;;;;;;;12.15;72.46;101367.88;5101647;28;20052;-67
2023/01/02 08:06:18;;;;;;;3.30;2.53;;;;;;;12.15;72.56;101384.88;5101246;28;20051;-66
2023/01/02 08:08:46;;;;;;;2.97;2.45;;;;;;;12.15;72.56;101392.13;5093137;28;20074;-66
2023/01/02 08:11:17;;;;;;;3.30;2.42;;;;;;;12.14;72.77;101396.69;5099013;28;20052;-66
2023/01/02 08:13:46;;;;;;;2.75;2.33;;;;;;;12.14;72.73;101403.94;5092378;28;20048;-68
2023/01/02 08:16:16;;;;;;;4.00;2.25;;;;;;;12.14;72.36;101414.72;5096709;28;20083;-67
2023/01/02 08:18:45;;;;;;;3.38;2.75;;;;;;;12.12;72.74;101409.59;5100519;28;20064;-67
2023/01/02 08:21:14;;;;;;;3.97;2.60;;;;;;;12.11;72.73;101417.88;5101299;28;20047;-65
2023/01/02 08:23:42;;;;;;;2.60;2.08;;;;;;;12.11;72.88;101420.59;5100030;28;20079;-66
2023/01/02 08:26:11;;;;;;;2.65;2.05;;;;;;;12.10;72.92;101419.75;5099081;28;20058;-67
2023/01/02 08:28:40;;;;;;;3.60;2.42;;;;;;;12.10;72.61;101427.84;5099907;28;20146;-65
2023/01/02 08:31:12;;;;;;;3.00;2.22;;;;;;;12.09;72.91;101426.19;5095288;28;20083;-67
2023/01/02 08:33:40;;;;;;;2.78;2.47;;;;;;;12.09;72.61;101430.75;5101111;28;20043;-66
2023/01/02 08:36:08;;;;;;;6.40;3.00;;;;;;;12.08;72.54;101435.31;5100056;28;20462;-67
2023/01/02 08:38:37;;;;;;;3.33;2.65;;;;;;;12.06;72.75;101434.72;5099661;28;20055;-68
2023/01/02 08:41:05;;;;;;;4.95;3.08;;;;;;;12.04;72.30;101442.19;5100287;28;20536;-65
2023/01/02 08:43:34;;;;;;;3.58;2.78;;;;;;;11.98;72.38;101426.88;5096295;28;20080;-66
2023/01/02 08:46:04;;;;;;;5.07;2.67;;;;;;;12.02;72.57;101452.34;5085603;28;20055;-64
2023/01/02 08:48:33;;;;;;;3.45;2.40;;;;;;;12.07;71.74;101463.31;5096939;28;20052;-65
2023/01/02 08:51:02;;;;;;;4.22;2.60;;;;;;;12.08;71.19;101447.97;5101028;28;20126;-64
2023/01/02 08:53:30;;;;;;;3.95;2.47;;;;;;;12.22;71.00;101449.50;5100467;28;20048;-65
2023/01/02 08:56:16;;;;;;;3.65;2.35;;;;;;;12.49;69.67;101471.69;5097781;28;20135;-66
2023/01/02 08:58:44;;;;;;;3.17;2.17;;;;;;;12.68;69.19;101471.53;5099930;28;20052;-63
2023/01/02 09:01:19;;;;;;;2.38;1.85;;;;;;;12.85;68.77;101477.19;5099493;28;20044;-64
2023/01/02 09:03:48;;;;;;;5.00;2.15;;;;;;;13.01;68.07;101471.22;5100936;28;20070;-66
2023/01/02 09:06:16;;;;;;;4.07;2.22;;;;;;;13.18;67.21;101476.09;5099782;28;20052;-65
2023/01/02 09:08:51;;;;;;;3.00;1.90;;;;;;;13.33;66.73;101480.06;5094611;28;20067;-66
2023/01/02 09:11:21;;;;;;;2.22;1.65;;;;;;;13.38;65.96;101475.88;5099838;28;20504;-66
2023/01/02 09:13:49;;;;;;;3.90;1.90;;;;;;;13.45;65.60;101490.94;5099019;28;20062;-61
2023/01/02 09:16:17;;;;;;;3.15;1.88;;;;;;;13.39;65.67;101499.13;5099188;28;20062;-65
2023/01/02 09:18:45;;;;;;;2.55;1.48;;;;;;;13.24;66.19;101502.19;5100447;28;20115;-64
2023/01/02 09:21:14;;;;;;;2.30;1.60;;;;;;;13.08;66.93;101513.53;5095499;28;20056;-63
2023/01/02 09:23:42;;;;;;;3.05;1.83;;;;;;;12.83;66.72;101508.97;5099541;28;20147;-63
2023/01/02 09:26:12;;;;;;;2.95;2.05;;;;;;;12.80;67.28;101533.69;5099753;28;20105;-64
2023/01/02 09:28:40;;;;;;;2.15;1.77;;;;;;;12.68;68.31;101532.75;5099785;28;20080;-63
2023/01/02 09:31:11;;;;;;;2.75;1.85;;;;;;;12.61;68.76;101535.47;5086937;28;20055;-64
2023/01/02 09:33:39;;;;;;;4.10;2.20;;;;;;;12.54;68.52;101542.78;5099125;28;20551;-61
2023/01/02 09:36:10;;;;;;;3.22;2.03;;;;;;;12.50;69.05;101540.75;5098147;28;20052;-60
2023/01/02 09:38:39;;;;;;;2.88;1.45;;;;;;;12.46;69.62;101544.91;5098696;28;20036;-64
2023/01/02 09:41:15;;;;;;;6.22;2.92;;;;;;;12.33;69.55;101532.34;5099009;28;20076;-62
2023/01/02 09:43:46;;;;;;;3.25;2.22;;;;;;;12.37;69.48;101552.44;5096570;28;20059;-63
2023/01/02 09:46:27;;;;;;;4.10;2.20;;;;;;;12.35;69.60;101557.22;5098737;28;20117;-60
2023/01/02 09:48:55;;;;;;;3.03;2.40;;;;;;;12.32;69.62;101558.47;5094705;28;20052;-64
2023/01/02 09:51:23;;;;;;;3.28;2.33;;;;;;;12.21;69.07;101544.84;5102903;28;20512;-63
2023/01/02 09:53:53;;;;;;;3.92;3.03;;;;;;;12.25;69.68;101563.06;5099960;28;20054;-61
2023/01/02 09:56:24;;;;;;;4.97;2.20;;;;;;;12.22;69.48;101563.50;5102906;28;20048;-60
2023/01/02 09:59:07;;;;;;;3.17;2.28;;;;;;;12.19;69.54;101569.31;5103015;28;20044;-62
2023/01/02 10:01:42;;;;;;;5.30;2.40;;;;;;;12.17;69.86;101568.72;5098919;28;20048;-66
2023/01/02 10:04:20;;;;;;;3.60;2.53;;;;;;;12.15;69.94;101561.88;5097456;28;20056;-63
2023/01/02 10:06:58;;;;;;;3.72;1.85;;;;;;;12.13;69.99;101580.16;5094194;28;20518;-64
2023/01/02 10:09:35;;;;;;;6.32;2.33;;;;;;;12.03;70.09;101570.66;5113063;28;20087;-63
2023/01/02 10:12:12;;;;;;;3.63;2.42;;;;;;;12.11;70.39;101583.06;5102777;28;20056;-60
2023/01/02 10:14:52;;;;;;;3.83;2.13;;;;;;;12.10;70.67;101583.28;5101498;28;20055;-62
2023/01/02 10:17:21;;;;;;;3.85;2.42;;;;;;;12.00;70.20;101584.56;5099338;28;20565;-61
2023/01/02 10:19:53;;;;;;;3.40;2.60;;;;;;;11.98;70.59;101585.81;5096598;28;20099;-62
2023/01/02 10:22:27;;;;;;;4.38;2.13;;;;;;;12.07;70.53;101595.31;5103223;28;20044;-62
2023/01/02 10:25:03;;;;;;;3.83;2.53;;;;;;;12.06;70.24;101585.59;5094607;28;20116;-63
2023/01/02 10:27:37;;;;;;;4.80;2.70;;;;;;;12.05;70.44;101589.31;5096316;28;20044;-62
2023/01/02 10:30:15;;;;;;;4.03;2.75;;;;;;;11.97;70.82;101568.00;5101459;28;20079;-68
2023/01/02 10:32:47;;;;;;;4.85;2.90;;;;;;;12.02;70.41;101582.50;5102678;28;20063;-64
2023/01/02 10:35:26;;;;;;;3.25;2.45;;;;;;;11.93;70.62;101585.63;5102620;28;20063;-61
2023/01/02 10:37:56;;;;;;;4.68;3.33;;;;;;;12.01;70.86;101594.31;5097911;28;20071;-63
2023/01/02 10:40:25;;;;;;;3.85;2.63;;;;;;;12.01;70.64;101590.78;5103789;28;20056;-63
2023/01/02 10:42:56;;;;;;;4.40;2.63;;;;;;;12.01;70.88;101594.31;5098040;28;20097;-63
2023/01/02 10:45:27;;;;;;;4.97;2.40;;;;;;;12.01;70.66;101599.69;5100081;28;20048;-59
2023/01/02 10:47:55;;;;;;;7.85;3.05;;;;;;;12.00;70.55;101595.34;5098877;28;20099;-64
2023/01/02 10:50:27;;;;;;;5.18;2.67;;;;;;;11.99;70.57;101599.06;5096068;28;20052;-63
2023/01/02 10:53:06;;;;;;;3.95;2.47;;;;;;;11.91;70.63;101585.00;5092165;28;20058;-64
2023/01/02 10:55:39;;;;;;;5.25;2.40;;;;;;;11.99;70.76;101601.78;5101567;28;20063;-62
2023/01/02 10:58:18;;;;;;;4.43;2.50;;;;;;;11.99;70.83;101607.16;5100406;28;20531;-52
2023/01/02 11:00:46;;;;;;;4.10;2.50;;;;;;;11.99;71.22;101617.09;5102136;28;20076;-63
2023/01/02 11:03:17;;;;;;;4.20;2.50;;;;;;;11.99;70.63;101614.41;5101660;28;20056;-64
2023/01/02 11:05:47;;;;;;;4.30;2.55;;;;;;;11.99;71.07;101617.09;5099607;28;20044;-63
2023/01/02 11:08:17;;;;;;;6.22;2.50;;;;;;;11.98;70.99;101610.06;5105862;28;20090;-63
2023/01/02 11:10:46;;;;;;;5.57;3.08;;;;;;;11.99;71.10;101615.25;5095838;28;20416;-64
2023/01/02 11:13:16;;;;;;;6.07;4.13;;;;;;;11.99;70.83;101617.94;5097535;28;20052;-64
2023/01/02 11:15:49;;;;;;;4.95;3.50;;;;;;;11.93;70.88;101612.56;5104956;28;20043;-63
2023/01/02 11:18:21;;;;;;;6.80;4.22;;;;;;;11.99;71.08;101623.31;5099783;28;20058;-64
2023/01/02 11:20:52;;;;;;;6.15;4.60;;;;;;;11.98;71.21;101624.38;5101982;28;20075;-63
2023/01/02 11:23:24;;;;;;;6.97;4.55;;;;;;;11.98;71.18;101634.31;5088842;28;20116;-63
2023/01/02 11:25:54;;;;;;;5.82;4.32;;;;;;;11.98;71.21;101626.22;5100802;28;20097;-63
2023/01/02 11:28:27;;;;;;;7.72;4.93;;;;;;;11.98;71.15;101632.44;5101547;28;20105;-61
2023/01/02 11:31:01;;;;;;;6.25;4.45;;;;;;;11.97;70.98;101635.34;5100100;28;20131;-61
2023/01/02 11:33:31;;;;;;;7.10;4.88;;;;;;;11.97;71.21;101633.47;5089391;28;20052;-63
2023/01/02 11:36:06;;;;;;;8.45;5.43;;;;;;;11.96;70.81;101628.31;5103869;28;20052;-62
2023/01/02 11:38:43;;;;;;;9.07;5.63;;;;;;;11.96;70.80;101642.59;5094519;28;20054;-63
2023/01/02 11:43:47;;;;;;;7.53;5.47;;;;;;;11.96;70.60;101641.78;5105909;28;20072;-61
2023/01/02 11:44:17;;;;;;;7.93;4.68;;;;;;;11.94;70.86;101628.53;5099721;28;20048;-57